Time;durP1;ratioP1;P1;durP2;ratioP2;P2;SDS_P1;SDS_P2;PMS_P1;PMS_P2;Temp;Humidity;BMP_temperature;BMP_pressure;BME280_temperature;BME280_humidity;BME280_pressure;Samples;Min_cycle;Max_cycle;Signal;HPM_P1;HPM_P2
2023/04/18 00:00:31;;;;;;;11.55;9.18;;;10.90;99.90;;;;;;5032509;28;20592;-44
2023/04/18 00:02:57;;;;;;;11.52;9.38;;;10.90;99.90;;;;;;5031936;28;20530;-44
2023/04/18 00:05:23;;;;;;;11.32;8.98;;;10.80;99.90;;;;;;5032703;28;20029;-43
2023/04/18 00:07:50;;;;;;;12.20;8.57;;;10.80;99.90;;;;;;5031591;28;20028;-45
2023/04/18 00:10:15;;;;;;;12.38;9.30;;;10.80;99.90;;;;;;5031756;28;20049;-45
2023/04/18 00:12:42;;;;;;;12.60;8.95;;;10.90;99.90;;;;;;5031521;28;20487;-45
2023/04/18 00:15:09;;;;;;;10.90;8.80;;;10.80;99.90;;;;;;5032650;28;20029;-44
2023/04/18 00:17:37;;;;;;;11.05;8.70;;;10.80;99.90;;;;;;5031536;28;20490;-44
2023/04/18 00:20:05;;;;;;;10.15;8.60;;;10.90;99.90;;;;;;5037941;28;20055;-42
2023/04/18 00:22:30;;;;;;;11.30;9.23;;;10.90;99.90;;;;;;5039028;28;20026;-43
2023/04/18 00:24:56;;;;;;;11.85;8.70;;;10.80;99.90;;;;;;5037901;28;20094;-44
2023/04/18 00:27:22;;;;;;;12.32;9.55;;;10.80;99.90;;;;;;5037818;28;20025;-44
2023/04/18 00:29:48;;;;;;;11.43;8.55;;;10.80;99.90;;;;;;5038355;28;20026;-45
2023/04/18 00:32:14;;;;;;;10.25;8.70;;;10.90;99.90;;;;;;5037516;28;20030;-45
2023/04/18 00:34:39;;;;;;;11.63;9.10;;;10.90;99.90;;;;;;5038348;28;20029;-44
2023/04/18 00:37:06;;;;;;;9.95;8.60;;;10.90;99.90;;;;;;5038080;28;20022;-44
2023/04/18 00:39:34;;;;;;;11.27;8.98;;;10.90;99.90;;;;;;5038061;28;20029;-44
2023/04/18 00:42:01;;;;;;;12.98;9.48;;;10.90;99.90;;;;;;5038371;28;20025;-45
2023/04/18 00:44:27;;;;;;;10.85;9.23;;;10.80;99.90;;;;;;5038983;28;20480;-44
2023/04/18 00:46:52;;;;;;;10.98;8.63;;;10.80;99.90;;;;;;5036739;28;20104;-46
2023/04/18 00:49:18;;;;;;;11.98;8.85;;;10.80;99.90;;;;;;5038035;28;20021;-44
2023/04/18 00:51:45;;;;;;;11.82;8.85;;;10.80;99.90;;;;;;5037478;28;20037;-46
2023/04/18 00:54:12;;;;;;;11.75;10.00;;;10.80;99.90;;;;;;5037616;28;20026;-45
2023/04/18 00:56:38;;;;;;;13.35;9.40;;;10.80;99.90;;;;;;5036665;28;20475;-43
2023/04/18 00:59:05;;;;;;;12.35;9.35;;;10.90;99.90;;;;;;5037208;28;20034;-42
2023/04/18 01:01:32;;;;;;;11.93;9.52;;;10.90;99.90;;;;;;5038104;28;20029;-44
2023/04/18 01:03:58;;;;;;;13.10;9.13;;;10.90;99.90;;;;;;5037864;28;20037;-44
2023/04/18 01:06:25;;;;;;;11.75;10.00;;;10.80;99.90;;;;;;5037897;28;20132;-44
2023/04/18 01:08:52;;;;;;;14.15;10.57;;;10.80;99.90;;;;;;5037934;28;20541;-44
2023/04/18 01:11:18;;;;;;;12.13;10.07;;;10.80;99.90;;;;;;5037126;28;20025;-46
2023/04/18 01:14:01;;;;;;;13.13;10.27;;;10.80;99.90;;;;;;5037045;28;20017;-43
2023/04/18 01:16:28;;;;;;;13.48;9.50;;;10.80;99.90;;;;;;5036490;28;20399;-44
2023/04/18 01:18:54;;;;;;;11.32;9.10;;;10.90;99.90;;;;;;5038262;28;20017;-45
2023/04/18 01:21:20;;;;;;;17.25;10.10;;;10.80;99.90;;;;;;5037887;28;20049;-44
2023/04/18 01:23:51;;;;;;;13.50;9.52;;;10.80;99.90;;;;;;5038578;28;20491;-44
2023/04/18 01:26:18;;;;;;;12.52;10.13;;;10.80;99.90;;;;;;5037165;28;20116;-44
2023/04/18 01:28:44;;;;;;;13.00;10.55;;;10.80;99.90;;;;;;5037677;28;20025;-45
2023/04/18 01:31:09;;;;;;;13.32;9.70;;;10.80;99.90;;;;;;5033383;28;20031;-44
2023/04/18 01:33:35;;;;;;;12.43;10.15;;;10.80;99.90;;;;;;5033823;28;20022;-44
2023/04/18 01:36:01;;;;;;;13.10;10.07;;;10.80;99.90;;;;;;5034353;28;20380;-44
2023/04/18 01:38:26;;;;;;;12.88;10.43;;;10.80;99.90;;;;;;5034357;28;20061;-44
2023/04/18 01:40:52;;;;;;;13.48;9.98;;;10.80;99.90;;;;;;5034258;28;20030;-44
2023/04/18 01:43:18;;;;;;;13.80;10.55;;;10.80;99.90;;;;;;5033751;28;20060;-46
2023/04/18 01:45:43;;;;;;;14.77;10.90;;;10.80;99.90;;;;;;5034952;28;20108;-45
2023/04/18 01:48:09;;;;;;;13.18;10.65;;;10.80;99.90;;;;;;5033201;28;20096;-44
2023/04/18 01:50:34;;;;;;;13.20;10.68;;;10.80;99.90;;;;;;5033384;28;20479;-44
2023/04/18 01:53:00;;;;;;;14.20;11.10;;;10.80;99.90;;;;;;5034247;28;20037;-44
2023/04/18 01:55:25;;;;;;;13.77;10.68;;;10.80;99.90;;;;;;5034104;28;20025;-44
2023/04/18 01:57:51;;;;;;;12.80;10.52;;;10.80;99.90;;;;;;5034298;28;20104;-42
2023/04/18 02:00:17;;;;;;;14.15;11.23;;;10.80;99.90;;;;;;5034347;28;20530;-44
2023/04/18 02:02:43;;;;;;;12.40;10.43;;;10.80;99.90;;;;;;5034567;28;20033;-44
2023/04/18 02:05:10;;;;;;;13.50;10.40;;;10.80;99.90;;;;;;5034377;28;20037;-45
2023/04/18 02:07:36;;;;;;;15.43;10.90;;;10.80;99.90;;;;;;5033711;28;20104;-46
2023/04/18 02:10:02;;;;;;;13.85;10.98;;;10.80;99.90;;;;;;5034706;28;20105;-44
2023/04/18 02:12:27;;;;;;;13.77;10.57;;;10.80;99.90;;;;;;5033107;28;20491;-44
2023/04/18 02:14:53;;;;;;;14.45;10.52;;;10.80;99.90;;;;;;5034248;28;20025;-45
2023/04/18 02:17:22;;;;;;;13.88;10.45;;;10.80;99.90;;;;;;5033317;28;20025;-44
2023/04/18 02:19:50;;;;;;;14.40;11.30;;;10.80;99.90;;;;;;5033809;28;20387;-43
2023/04/18 02:22:15;;;;;;;12.63;10.27;;;10.80;99.90;;;;;;5033179;28;20327;-44
2023/04/18 02:24:41;;;;;;;12.88;10.85;;;10.80;99.90;;;;;;5033839;28;20369;-46
2023/04/18 02:27:07;;;;;;;15.18;11.15;;;10.80;99.90;;;;;;5032961;28;20072;-44
2023/04/18 02:29:32;;;;;;;14.07;11.07;;;10.80;99.90;;;;;;5033379;28;20033;-46
2023/04/18 02:31:58;;;;;;;14.38;11.05;;;10.80;99.90;;;;;;5033422;28;20083;-45
2023/04/18 02:34:24;;;;;;;13.40;10.73;;;10.80;99.90;;;;;;5033572;28;20075;-46
2023/04/18 02:36:50;;;;;;;14.00;11.23;;;10.80;99.90;;;;;;5032332;28;20382;-44
2023/04/18 02:39:15;;;;;;;13.27;11.40;;;10.80;99.90;;;;;;5032915;28;20122;-46
2023/04/18 02:41:41;;;;;;;17.42;11.77;;;10.80;99.90;;;;;;5032620;28;20487;-44
2023/04/18 02:44:07;;;;;;;15.68;11.48;;;10.80;99.90;;;;;;5032416;28;20392;-44
2023/04/18 02:46:33;;;;;;;16.42;12.02;;;10.80;99.90;;;;;;5032799;28;20522;-46
2023/04/18 02:48:59;;;;;;;14.18;11.38;;;10.80;99.90;;;;;;5033357;28;20034;-45
2023/04/18 02:51:25;;;;;;;14.05;11.25;;;10.70;99.90;;;;;;5032822;28;20096;-44
2023/04/18 02:53:53;;;;;;;14.82;11.07;;;10.80;99.90;;;;;;5032168;28;20026;-44
2023/04/18 02:56:20;;;;;;;15.23;10.95;;;10.80;99.90;;;;;;5032916;28;20468;-44
2023/04/18 02:58:46;;;;;;;13.88;11.07;;;10.80;99.90;;;;;;5034074;28;20104;-43
2023/04/18 03:01:12;;;;;;;17.98;12.30;;;10.70;99.90;;;;;;5032773;28;20403;-44
2023/04/18 03:03:38;;;;;;;14.80;11.07;;;10.70;99.90;;;;;;5033243;28;20036;-46
2023/04/18 03:06:04;;;;;;;16.80;11.85;;;10.80;99.90;;;;;;5031818;28;20037;-45
2023/04/18 03:08:29;;;;;;;15.38;11.82;;;10.80;99.90;;;;;;5032672;28;20060;-45
2023/04/18 03:10:55;;;;;;;15.57;11.70;;;10.70;99.90;;;;;;5032133;28;20057;-46
2023/04/18 03:13:20;;;;;;;14.10;11.48;;;10.70;99.90;;;;;;5031946;28;20036;-44
2023/04/18 03:15:46;;;;;;;14.75;11.52;;;10.70;99.90;;;;;;5032314;28;20105;-46
2023/04/18 03:18:12;;;;;;;16.33;11.40;;;10.70;99.90;;;;;;5032707;28;20018;-43
2023/04/18 03:20:38;;;;;;;14.43;10.43;;;10.70;99.90;;;;;;5033231;28;20029;-44
2023/04/18 03:23:04;;;;;;;14.75;11.00;;;10.70;99.90;;;;;;5033047;28;20024;-46
2023/04/18 03:25:30;;;;;;;13.75;10.90;;;10.70;99.90;;;;;;5031850;28;20108;-44
2023/04/18 03:27:55;;;;;;;15.15;11.27;;;10.70;99.90;;;;;;5031383;28;20700;-44
2023/04/18 03:30:21;;;;;;;16.42;11.82;;;10.70;99.90;;;;;;5031674;28;20026;-43
2023/04/18 03:32:47;;;;;;;14.65;11.00;;;10.70;99.90;;;;;;5032944;28;20021;-42
2023/04/18 03:35:14;;;;;;;17.38;12.07;;;10.70;99.90;;;;;;5032475;28;20502;-44
2023/04/18 03:37:39;;;;;;;15.10;11.25;;;10.70;99.90;;;;;;5032168;28;20021;-42
2023/04/18 03:40:05;;;;;;;15.55;10.80;;;10.70;99.90;;;;;;5032693;28;20014;-44
2023/04/18 03:42:31;;;;;;;15.43;11.55;;;10.70;99.90;;;;;;5032085;28;20464;-44
2023/04/18 03:44:57;;;;;;;15.38;10.98;;;10.70;99.90;;;;;;5032279;28;20079;-44
2023/04/18 03:47:22;;;;;;;13.27;10.40;;;10.80;99.90;;;;;;5030693;28;20036;-44
2023/04/18 03:49:48;;;;;;;16.90;11.18;;;10.70;99.90;;;;;;5031727;28;20057;-43
2023/04/18 03:52:14;;;;;;;13.70;10.85;;;10.70;99.90;;;;;;5031424;28;20026;-42
2023/04/18 03:54:40;;;;;;;13.88;10.60;;;10.70;99.90;;;;;;5030681;28;20116;-43
2023/04/18 03:57:06;;;;;;;14.60;10.77;;;10.70;99.90;;;;;;5032017;28;20116;-44
2023/04/18 03:59:31;;;;;;;17.55;10.75;;;10.70;99.90;;;;;;5032010;28;20077;-44
2023/04/18 04:01:57;;;;;;;16.90;11.20;;;10.70;99.90;;;;;;5031257;28;20396;-44
2023/04/18 04:04:23;;;;;;;14.93;10.60;;;10.70;99.90;;;;;;5030989;28;20033;-46
2023/04/18 04:06:48;;;;;;;15.13;11.25;;;10.70;99.90;;;;;;5031270;28;20029;-46
2023/04/18 04:09:14;;;;;;;13.95;10.07;;;10.70;99.90;;;;;;5032107;28;20036;-44
2023/04/18 04:11:39;;;;;;;14.07;10.68;;;10.70;99.90;;;;;;5032166;28;20057;-44
2023/04/18 04:14:05;;;;;;;18.10;10.98;;;10.70;99.90;;;;;;5031622;28;20041;-46
2023/04/18 04:16:31;;;;;;;14.77;10.88;;;10.70;99.90;;;;;;5030265;28;20060;-44
2023/04/18 04:18:56;;;;;;;13.85;10.65;;;10.70;99.90;;;;;;5031383;28;20423;-44
2023/04/18 04:21:22;;;;;;;15.50;11.10;;;10.70;99.90;;;;;;5032061;28;20021;-44
2023/04/18 04:23:48;;;;;;;14.93;10.90;;;10.70;99.90;;;;;;5032460;28;20022;-44
2023/04/18 04:26:15;;;;;;;15.27;10.75;;;10.70;99.90;;;;;;5030912;28;20060;-43
2023/04/18 04:28:42;;;;;;;17.00;11.25;;;10.70;99.90;;;;;;5032416;28;20489;-44
2023/04/18 04:31:09;;;;;;;13.20;9.68;;;10.70;99.90;;;;;;5033495;28;20021;-44
2023/04/18 04:33:37;;;;;;;13.00;10.25;;;10.70;99.90;;;;;;5033302;28;20502;-44
2023/04/18 04:36:04;;;;;;;13.43;10.25;;;10.70;99.90;;;;;;5031920;28;20093;-45
2023/04/18 04:38:29;;;;;;;15.20;10.57;;;10.70;99.90;;;;;;5033175;28;20030;-45
2023/04/18 04:40:56;;;;;;;14.38;10.45;;;10.70;99.90;;;;;;5030756;28;20057;-46
2023/04/18 04:43:23;;;;;;;15.77;11.40;;;10.70;99.90;;;;;;5031417;28;20057;-44
2023/04/18 04:45:50;;;;;;;13.50;10.68;;;10.60;99.90;;;;;;5030184;28;20555;-43
2023/04/18 04:48:17;;;;;;;15.30;11.30;;;10.70;99.90;;;;;;5030710;28;20052;-44
2023/04/18 04:50:51;;;;;;;15.23;10.57;;;10.60;99.90;;;;;;5032092;28;20128;-44
2023/04/18 04:53:17;;;;;;;15.85;11.43;;;10.70;99.90;;;;;;5031373;28;20036;-46
2023/04/18 04:55:42;;;;;;;15.55;10.50;;;10.70;99.90;;;;;;5030616;28;20112;-43
2023/04/18 04:58:08;;;;;;;15.63;11.05;;;10.70;99.90;;;;;;5030265;28;20553;-44
2023/04/18 05:00:34;;;;;;;15.25;11.25;;;10.60;99.90;;;;;;5030937;28;20407;-44
2023/04/18 05:03:00;;;;;;;14.88;11.35;;;10.70;99.90;;;;;;5031436;28;20480;-47
2023/04/18 05:05:26;;;;;;;14.48;11.43;;;10.60;99.90;;;;;;5032236;28;20021;-44
2023/04/18 05:07:52;;;;;;;14.52;11.10;;;10.70;99.90;;;;;;5034625;28;20368;-45
2023/04/18 05:10:18;;;;;;;16.92;11.48;;;10.60;99.90;;;;;;5035233;28;20022;-44
2023/04/18 05:12:44;;;;;;;16.88;11.13;;;10.60;99.90;;;;;;5034756;28;20042;-44
2023/04/18 05:15:10;;;;;;;13.52;10.75;;;10.60;99.90;;;;;;5034045;28;20491;-43
2023/04/18 05:17:35;;;;;;;17.05;10.90;;;10.60;99.90;;;;;;5034331;28;20018;-43
2023/04/18 05:20:01;;;;;;;13.43;10.75;;;10.60;99.90;;;;;;5034955;28;20071;-46
2023/04/18 05:22:26;;;;;;;12.32;10.45;;;10.60;99.90;;;;;;5034662;28;20021;-46
2023/04/18 05:24:52;;;;;;;14.13;10.93;;;10.60;99.90;;;;;;5035230;28;20033;-44
2023/04/18 05:27:18;;;;;;;15.02;11.07;;;10.60;99.90;;;;;;5034237;28;20034;-44
2023/04/18 05:29:43;;;;;;;17.58;10.52;;;10.60;99.90;;;;;;5034142;28;20035;-47
2023/04/18 05:32:09;;;;;;;14.25;11.00;;;10.60;99.90;;;;;;5035230;28;20388;-44
2023/04/18 05:34:38;;;;;;;17.80;11.20;;;10.60;99.90;;;;;;5034968;28;20472;-43
2023/04/18 05:37:03;;;;;;;13.73;10.85;;;10.60;99.90;;;;;;5033243;28;20018;-44
2023/04/18 05:39:29;;;;;;;15.45;10.75;;;10.60;99.90;;;;;;5034603;28;20091;-44
2023/04/18 05:41:55;;;;;;;16.58;11.75;;;10.60;99.90;;;;;;5034819;28;20056;-43
2023/04/18 05:44:22;;;;;;;13.85;10.77;;;10.60;99.90;;;;;;5034274;28;20029;-47
2023/04/18 05:46:50;;;;;;;16.23;11.40;;;10.60;99.90;;;;;;5034363;28;20081;-47
2023/04/18 05:49:17;;;;;;;14.95;11.02;;;10.60;99.90;;;;;;5035243;28;20104;-44
2023/04/18 05:51:43;;;;;;;15.52;11.35;;;10.60;99.90;;;;;;5034322;28;20030;-45
2023/04/18 05:54:09;;;;;;;15.70;11.50;;;10.60;99.90;;;;;;5034586;28;20037;-44
2023/04/18 05:56:34;;;;;;;15.18;11.43;;;10.60;99.90;;;;;;5032699;28;20436;-44
2023/04/18 05:59:00;;;;;;;14.38;11.00;;;10.60;99.90;;;;;;5033854;28;20021;-45
2023/04/18 06:01:26;;;;;;;17.58;12.02;;;10.60;99.90;;;;;;5034460;28;20131;-44
2023/04/18 06:03:53;;;;;;;18.50;12.07;;;10.60;99.90;;;;;;5033528;28;20403;-46
2023/04/18 06:06:20;;;;;;;18.33;11.30;;;10.60;99.90;;;;;;5033984;28;20569;-44
2023/04/18 06:08:46;;;;;;;16.58;11.13;;;10.60;99.90;;;;;;5033366;28;20395;-44
2023/04/18 06:11:14;;;;;;;16.48;11.13;;;10.60;99.90;;;;;;5033429;28;20033;-44
2023/04/18 06:13:40;;;;;;;16.67;11.75;;;10.50;99.90;;;;;;5034160;28;20044;-44
2023/04/18 06:16:06;;;;;;;16.27;11.35;;;10.60;99.90;;;;;;5032306;28;20495;-45
2023/04/18 06:18:32;;;;;;;15.45;11.07;;;10.50;99.90;;;;;;5032976;28;20021;-43
2023/04/18 06:20:57;;;;;;;14.60;11.57;;;10.50;99.90;;;;;;5033152;28;20021;-46
2023/04/18 06:23:23;;;;;;;13.18;11.02;;;10.60;99.90;;;;;;5033823;28;20026;-44
2023/04/18 06:25:48;;;;;;;15.98;11.27;;;10.60;99.90;;;;;;5033635;28;20534;-44
2023/04/18 06:28:14;;;;;;;15.60;10.63;;;10.60;99.90;;;;;;5033953;28;20038;-44
2023/04/18 06:30:40;;;;;;;16.00;11.18;;;10.60;99.90;;;;;;5033833;28;20057;-44
2023/04/18 06:33:09;;;;;;;13.75;11.30;;;10.50;99.90;;;;;;5033848;28;20475;-42
2023/04/18 06:35:34;;;;;;;15.20;11.45;;;10.60;99.90;;;;;;5033707;28;20048;-44
2023/04/18 06:38:00;;;;;;;19.52;11.35;;;10.60;99.90;;;;;;5032814;28;20182;-43
2023/04/18 06:40:26;;;;;;;17.35;11.27;;;10.60;99.90;;;;;;5033613;28;20859;-46
2023/04/18 06:42:51;;;;;;;16.30;10.63;;;10.50;99.90;;;;;;5032500;28;20026;-46
2023/04/18 06:45:17;;;;;;;13.85;11.00;;;10.60;99.90;;;;;;5032521;28;20391;-42
2023/04/18 06:47:43;;;;;;;15.48;11.07;;;10.60;99.90;;;;;;5031907;28;20025;-44
2023/04/18 06:50:09;;;;;;;13.98;10.95;;;10.50;99.90;;;;;;5032982;28;20133;-45
2023/04/18 06:52:39;;;;;;;15.07;11.13;;;10.60;99.90;;;;;;5032335;28;20029;-44
2023/04/18 06:55:06;;;;;;;15.25;11.52;;;10.60;99.90;;;;;;5032293;28;20033;-44
2023/04/18 06:57:32;;;;;;;15.27;10.63;;;10.60;99.90;;;;;;5031941;28;20025;-44
2023/04/18 06:59:57;;;;;;;13.40;10.52;;;10.60;99.90;;;;;;5032634;28;20042;-44
2023/04/18 07:02:23;;;;;;;14.13;10.48;;;10.60;99.90;;;;;;5031678;28;20022;-46
2023/04/18 07:04:49;;;;;;;14.82;11.35;;;10.50;99.90;;;;;;5031981;28;20074;-44
2023/04/18 07:07:14;;;;;;;15.05;11.02;;;10.50;99.90;;;;;;5031379;28;20024;-46
2023/04/18 07:09:40;;;;;;;16.30;11.20;;;10.60;99.90;;;;;;5032315;28;20040;-44
2023/04/18 07:12:06;;;;;;;15.55;11.48;;;10.50;99.90;;;;;;5032009;28;20028;-42
2023/04/18 07:14:31;;;;;;;13.27;10.88;;;10.50;99.90;;;;;;5032082;28;20030;-44
2023/04/18 07:16:57;;;;;;;17.40;11.75;;;10.50;99.90;;;;;;5032182;28;20044;-43
2023/04/18 07:19:23;;;;;;;15.20;11.27;;;10.50;99.90;;;;;;5032941;28;20028;-45
2023/04/18 07:21:49;;;;;;;15.25;11.30;;;10.60;99.90;;;;;;5032483;28;20542;-44
2023/04/18 07:24:15;;;;;;;13.40;10.50;;;10.60;99.90;;;;;;5031842;28;20068;-45
2023/04/18 07:26:41;;;;;;;16.35;11.27;;;10.60;99.90;;;;;;5031101;28;20476;-47
2023/04/18 07:29:06;;;;;;;15.23;10.43;;;10.60;99.90;;;;;;5031862;28;20025;-44
2023/04/18 07:31:33;;;;;;;12.68;10.15;;;10.60;99.90;;;;;;5031645;28;20475;-43
2023/04/18 07:33:58;;;;;;;13.65;10.18;;;10.60;99.90;;;;;;5031614;28;20029;-46
2023/04/18 07:36:25;;;;;;;14.63;10.57;;;10.60;99.90;;;;;;5030873;28;20470;-44
2023/04/18 07:38:50;;;;;;;15.93;11.07;;;10.60;99.90;;;;;;5031426;28;20075;-44
2023/04/18 07:41:16;;;;;;;14.18;10.85;;;10.60;99.90;;;;;;5031898;28;20077;-43
2023/04/18 07:43:43;;;;;;;13.88;10.77;;;10.60;99.90;;;;;;5031387;28;20033;-44
2023/04/18 07:46:09;;;;;;;13.38;10.43;;;10.60;99.90;;;;;;5030801;28;20018;-44
2023/04/18 07:48:35;;;;;;;12.77;9.68;;;10.60;99.90;;;;;;5031799;28;20510;-44
2023/04/18 07:51:01;;;;;;;16.92;11.45;;;10.60;99.90;;;;;;5030185;28;20034;-42
2023/04/18 07:53:27;;;;;;;13.68;10.77;;;10.60;99.90;;;;;;5031989;28;20029;-43
2023/04/18 07:55:53;;;;;;;20.50;11.63;;;10.60;99.90;;;;;;5031326;28;20033;-44
2023/04/18 07:58:19;;;;;;;14.85;11.13;;;10.60;99.90;;;;;;5031577;28;20051;-45
2023/04/18 08:00:45;;;;;;;14.70;10.25;;;10.60;99.90;;;;;;5033293;28;20025;-44
2023/04/18 08:03:11;;;;;;;17.90;11.30;;;10.60;99.90;;;;;;5031490;28;20040;-43
2023/04/18 08:05:38;;;;;;;15.52;11.13;;;10.60;99.90;;;;;;5032372;28;20041;-44
2023/04/18 08:08:06;;;;;;;16.23;11.18;;;10.60;99.90;;;;;;5031041;28;20555;-43
2023/04/18 08:10:32;;;;;;;16.27;11.77;;;10.60;99.90;;;;;;5032116;28;20033;-43
2023/04/18 08:12:58;;;;;;;14.88;10.70;;;10.60;99.90;;;;;;5031547;28;20032;-43
2023/04/18 08:15:26;;;;;;;13.75;10.93;;;10.60;99.90;;;;;;5030767;28;20087;-42
2023/04/18 08:17:52;;;;;;;16.90;11.77;;;10.60;99.90;;;;;;5030344;28;20431;-44
2023/04/18 08:20:18;;;;;;;14.18;11.00;;;10.60;99.90;;;;;;5031443;28;20049;-44
2023/04/18 08:22:44;;;;;;;17.65;11.35;;;10.60;99.90;;;;;;5032061;28;20065;-44
2023/04/18 08:25:10;;;;;;;18.20;11.35;;;10.60;99.90;;;;;;5031651;28;20563;-45
2023/04/18 08:27:36;;;;;;;14.80;11.57;;;10.70;99.90;;;;;;5031798;28;20116;-44
2023/04/18 08:30:03;;;;;;;17.98;11.55;;;10.60;99.90;;;;;;5030825;28;20541;-46
2023/04/18 08:32:30;;;;;;;16.60;11.35;;;10.60;99.90;;;;;;5031034;28;20447;-46
2023/04/18 08:34:56;;;;;;;15.07;11.40;;;10.60;99.90;;;;;;5032314;28;20025;-44
2023/04/18 08:37:22;;;;;;;16.60;11.02;;;10.60;99.90;;;;;;5030310;28;20434;-44
2023/04/18 08:39:48;;;;;;;20.40;13.05;;;10.60;99.90;;;;;;5032366;28;20075;-44
2023/04/18 08:42:18;;;;;;;19.85;13.43;;;10.60;99.90;;;;;;5036284;28;20067;-44
2023/04/18 08:44:46;;;;;;;18.83;13.05;;;10.50;99.90;;;;;;5035922;28;20163;-45
2023/04/18 08:47:11;;;;;;;20.23;13.25;;;10.60;99.90;;;;;;5035149;28;20033;-45
2023/04/18 08:49:38;;;;;;;18.83;13.80;;;10.50;99.90;;;;;;5037376;28;20034;-43
2023/04/18 08:52:10;;;;;;;17.40;12.50;;;10.50;99.90;;;;;;5035684;28;20022;-44
2023/04/18 08:54:37;;;;;;;18.23;13.25;;;10.50;99.90;;;;;;5035711;28;20030;-44
2023/04/18 08:57:04;;;;;;;18.77;13.35;;;10.50;99.90;;;;;;5034794;28;20513;-46
2023/04/18 08:59:31;;;;;;;17.60;13.10;;;10.50;99.90;;;;;;5035423;28;20155;-45
2023/04/18 09:01:57;;;;;;;18.45;13.43;;;10.60;99.90;;;;;;5036412;28;20026;-47
2023/04/18 09:04:44;;;;;;;16.15;12.05;;;10.60;99.90;;;;;;5034419;28;20037;-45
2023/04/18 09:07:12;;;;;;;18.40;12.68;;;10.60;99.90;;;;;;5033859;28;20032;-47
2023/04/18 09:09:55;;;;;;;16.42;12.43;;;10.60;99.90;;;;;;5036030;28;20066;-47
2023/04/18 09:12:26;;;;;;;18.05;12.95;;;10.60;99.90;;;;;;5034114;28;20049;-45
2023/04/18 09:14:56;;;;;;;16.60;12.90;;;10.60;99.90;;;;;;5034037;28;20035;-45
2023/04/18 09:17:58;;;;;;;18.98;12.38;;;10.60;99.90;;;;;;5033586;28;20072;-44
2023/04/18 09:20:39;;;;;;;18.25;12.73;;;10.70;99.90;;;;;;5022945;28;20025;-45
2023/04/18 09:23:13;;;;;;;15.88;11.93;;;10.70;99.90;;;;;;5034894;28;20051;-43
2023/04/18 09:25:45;;;;;;;18.50;12.35;;;10.60;99.90;;;;;;5037951;28;20030;-47
2023/04/18 09:28:30;;;;;;;15.50;12.02;;;10.60;99.90;;;;;;5035931;28;20036;-47
2023/04/18 09:31:12;;;;;;;17.40;11.45;;;10.70;99.90;;;;;;5035773;28;20029;-44
2023/04/18 09:33:41;;;;;;;15.55;12.30;;;10.70;99.90;;;;;;5035009;28;20026;-45
2023/04/18 09:36:25;;;;;;;16.85;12.68;;;10.70;99.90;;;;;;5034626;28;20033;-47
2023/04/18 09:38:52;;;;;;;19.70;12.18;;;10.70;99.90;;;;;;5033770;28;20029;-44
2023/04/18 09:41:19;;;;;;;17.35;12.55;;;10.70;99.90;;;;;;5034270;28;20033;-44
2023/04/18 09:43:45;;;;;;;16.38;11.88;;;10.70;99.90;;;;;;5035810;28;20479;-45
2023/04/18 09:46:13;;;;;;;18.40;12.57;;;10.70;99.90;;;;;;5034898;28;20368;-46
2023/04/18 09:48:40;;;;;;;17.40;11.57;;;10.70;99.90;;;;;;5035058;28;20026;-45
2023/04/18 09:51:08;;;;;;;15.20;12.10;;;10.70;99.90;;;;;;5033226;28;20391;-47
2023/04/18 09:53:40;;;;;;;16.13;12.65;;;10.70;99.90;;;;;;5034840;28;20040;-44
2023/04/18 09:56:27;;;;;;;18.80;12.98;;;10.80;99.90;;;;;;5033448;28;20495;-47
2023/04/18 09:59:02;;;;;;;18.15;12.43;;;10.70;99.90;;;;;;5033878;28;20185;-43
2023/04/18 10:01:28;;;;;;;21.33;13.00;;;10.80;99.90;;;;;;5032079;28;20026;-44
2023/04/18 10:03:55;;;;;;;17.98;12.10;;;10.80;99.90;;;;;;5033698;28;20034;-44
2023/04/18 10:06:21;;;;;;;14.45;11.18;;;10.70;99.90;;;;;;5032472;28;20048;-45
2023/04/18 10:08:49;;;;;;;14.98;11.50;;;10.80;99.90;;;;;;5033154;28;20033;-44
2023/04/18 10:11:15;;;;;;;16.05;12.65;;;10.80;99.90;;;;;;5033365;28;20086;-43
2023/04/18 10:13:43;;;;;;;16.40;11.60;;;10.80;99.90;;;;;;5033497;28;20044;-44
2023/04/18 10:16:09;;;;;;;15.55;12.18;;;10.80;99.90;;;;;;5033755;28;20120;-44
2023/04/18 10:18:35;;;;;;;14.25;11.20;;;10.80;99.90;;;;;;5034173;28;20466;-43
2023/04/18 10:21:02;;;;;;;15.60;11.18;;;10.80;99.90;;;;;;5034173;28;20029;-44
2023/04/18 10:23:31;;;;;;;15.60;11.10;;;10.80;99.90;;;;;;5034309;28;20481;-45
2023/04/18 10:25:57;;;;;;;14.40;11.55;;;10.80;99.90;;;;;;5033246;28;20037;-45
2023/04/18 10:28:25;;;;;;;15.93;11.30;;;10.80;99.90;;;;;;5032799;28;20025;-44
2023/04/18 10:31:04;;;;;;;15.15;11.50;;;10.80;99.90;;;;;;5033301;28;20029;-43
2023/04/18 10:33:39;;;;;;;15.05;11.25;;;10.80;99.90;;;;;;5033062;28;20302;-43
2023/04/18 10:36:14;;;;;;;15.85;11.43;;;10.80;99.90;;;;;;5032115;28;20388;-45
2023/04/18 10:39:02;;;;;;;15.60;11.10;;;10.80;99.90;;;;;;5032651;28;20021;-44
2023/04/18 10:41:30;;;;;;;16.67;11.40;;;10.90;99.90;;;;;;5032881;28;20087;-47
2023/04/18 10:44:08;;;;;;;16.05;11.20;;;10.90;99.90;;;;;;5032804;28;20423;-43
2023/04/18 10:46:39;;;;;;;16.73;11.90;;;10.90;99.90;;;;;;5032613;28;20108;-43
2023/04/18 10:49:15;;;;;;;13.63;10.50;;;10.90;99.90;;;;;;5033078;28;20087;-44
2023/04/18 10:51:50;;;;;;;16.17;11.23;;;10.90;99.90;;;;;;5032654;28;20100;-44
2023/04/18 10:54:30;;;;;;;16.42;10.85;;;10.90;99.90;;;;;;5032872;28;20029;-44
2023/04/18 10:56:58;;;;;;;14.13;10.70;;;10.90;99.90;;;;;;5031728;28;20022;-47
2023/04/18 10:59:25;;;;;;;14.43;11.65;;;10.90;99.90;;;;;;5033485;28;20029;-45
2023/04/18 11:02:13;;;;;;;12.88;10.10;;;10.90;99.90;;;;;;5033274;28;20049;-45
2023/04/18 11:04:39;;;;;;;12.27;10.27;;;10.90;99.90;;;;;;5033148;28;20045;-45
2023/04/18 11:07:05;;;;;;;15.77;10.93;;;10.90;99.90;;;;;;5031940;28;20026;-44
2023/04/18 11:09:30;;;;;;;14.65;9.75;;;10.90;99.90;;;;;;5032483;28;20036;-47
2023/04/18 11:12:07;;;;;;;14.48;10.48;;;11.00;99.90;;;;;;5031977;28;20026;-44
2023/04/18 11:14:48;;;;;;;13.98;9.90;;;11.00;99.90;;;;;;5031941;28;20064;-45
2023/04/18 11:17:22;;;;;;;17.88;11.18;;;11.00;99.90;;;;;;5040796;28;20025;-43
2023/04/18 11:19:48;;;;;;;15.68;11.38;;;10.90;99.90;;;;;;5033008;28;20380;-47
2023/04/18 11:22:15;;;;;;;13.77;10.35;;;10.90;99.90;;;;;;5033001;28;20365;-45
2023/04/18 11:24:41;;;;;;;14.68;10.60;;;11.00;99.90;;;;;;5032465;28;20025;-45
2023/04/18 11:27:11;;;;;;;15.18;10.40;;;11.10;99.90;;;;;;5031588;28;20021;-46
2023/04/18 11:29:38;;;;;;;14.80;10.10;;;11.10;99.90;;;;;;5033180;28;20112;-46
2023/04/18 11:32:07;;;;;;;13.18;9.95;;;11.10;99.90;;;;;;5031749;28;20075;-44
2023/04/18 11:34:34;;;;;;;15.60;10.10;;;11.20;99.90;;;;;;5031672;28;20024;-47
2023/04/18 11:37:01;;;;;;;13.43;9.75;;;11.10;99.90;;;;;;5033181;28;20017;-45
2023/04/18 11:39:27;;;;;;;13.68;9.60;;;11.20;99.90;;;;;;5033162;28;20491;-45
2023/04/18 11:41:55;;;;;;;12.93;9.38;;;11.20;99.90;;;;;;5032875;28;20024;-46
2023/04/18 11:44:24;;;;;;;12.25;9.10;;;11.20;99.90;;;;;;5032354;28;20117;-45
2023/04/18 11:46:50;;;;;;;11.65;9.43;;;11.20;99.90;;;;;;5032089;28;20040;-43
2023/04/18 11:49:31;;;;;;;12.93;9.23;;;11.30;99.90;;;;;;5032169;28;20036;-47
2023/04/18 11:51:57;;;;;;;12.63;9.23;;;11.30;99.90;;;;;;5032454;28;20044;-45
2023/04/18 11:54:38;;;;;;;12.35;8.60;;;11.30;99.90;;;;;;5032635;28;20440;-43
2023/04/18 11:57:05;;;;;;;12.50;8.80;;;11.30;99.90;;;;;;5031438;28;20047;-47
2023/04/18 11:59:31;;;;;;;13.48;9.00;;;11.30;99.90;;;;;;5031490;28;20018;-44
2023/04/18 12:02:01;;;;;;;12.25;8.90;;;11.40;99.90;;;;;;5031419;28;20072;-45
2023/04/18 12:04:27;;;;;;;12.05;8.45;;;11.40;99.90;;;;;;5031132;28;20021;-45
2023/04/18 12:06:53;;;;;;;9.63;8.20;;;11.40;99.90;;;;;;5031666;28;20437;-43
2023/04/18 12:09:21;;;;;;;14.68;10.07;;;11.40;99.90;;;;;;5030957;28;20025;-45
2023/04/18 12:12:00;;;;;;;14.95;10.43;;;11.30;99.90;;;;;;5031110;28;20104;-44
2023/04/18 12:14:26;;;;;;;13.23;9.57;;;11.40;99.90;;;;;;5031958;28;20027;-46
2023/04/18 12:16:52;;;;;;;13.63;10.07;;;11.40;99.90;;;;;;5032415;28;20033;-46
2023/04/18 12:19:19;;;;;;;14.95;9.85;;;11.50;99.90;;;;;;5031464;28;20397;-45
2023/04/18 12:22:05;;;;;;;12.27;9.63;;;11.40;99.90;;;;;;5032222;28;20468;-45
2023/04/18 12:24:31;;;;;;;11.40;8.98;;;11.40;99.90;;;;;;5032308;28;20507;-44
2023/04/18 12:26:57;;;;;;;12.38;8.75;;;11.40;99.90;;;;;;5031949;28;20025;-43
2023/04/18 12:29:24;;;;;;;12.52;8.98;;;11.40;99.90;;;;;;5033023;28;20037;-44